createdAt,value
2023-05-04T00:02:22.391Z,23.97
2023-05-04T00:04:52.302Z,9.93
2023-05-04T00:07:19.537Z,8.17
2023-05-04T00:09:45.876Z,9.20
2023-05-04T00:12:12.232Z,11.70
2023-05-04T00:14:38.601Z,14.27
2023-05-04T00:17:06.534Z,9.70
2023-05-04T00:19:34.620Z,10.23
2023-05-04T00:22:01.267Z,12.37
2023-05-04T00:24:28.310Z,9.97
2023-05-04T00:26:54.799Z,9.80
2023-05-04T00:29:21.152Z,9.43
2023-05-04T00:31:47.515Z,10.63
2023-05-04T00:34:14.051Z,10.67
2023-05-04T00:36:40.390Z,10.60
2023-05-04T00:39:06.828Z,12.70
2023-05-04T00:41:33.153Z,11.13
2023-05-04T00:44:04.041Z,12.60
2023-05-04T00:46:32.285Z,13.20
2023-05-04T00:48:59.728Z,11.53
2023-05-04T00:51:27.138Z,11.93
2023-05-04T00:53:57.335Z,10.77
2023-05-04T00:56:24.748Z,12.60
2023-05-04T00:58:55.227Z,15.17
2023-05-04T01:01:22.208Z,17.37
2023-05-04T01:03:52.652Z,14.03
2023-05-04T01:06:40.996Z,12.07
2023-05-04T01:09:22.532Z,14.50
2023-05-04T01:12:04.740Z,16.33
2023-05-04T01:14:31.536Z,9.33
2023-05-04T01:16:59.538Z,10.60
2023-05-04T01:19:28.040Z,13.10
2023-05-04T01:21:54.787Z,11.73
2023-05-04T01:24:21.423Z,11.33
2023-05-04T01:26:53.673Z,12.57
2023-05-04T01:29:29.674Z,10.47
2023-05-04T01:31:56.908Z,12.30
2023-05-04T01:34:23.351Z,12.00
2023-05-04T01:36:50.737Z,17.97
2023-05-04T01:39:17.133Z,12.60
2023-05-04T01:41:43.490Z,14.33
2023-05-04T01:44:09.937Z,12.63
2023-05-04T01:46:36.353Z,14.10
2023-05-04T01:49:02.822Z,15.30
2023-05-04T01:51:29.180Z,19.10
2023-05-04T01:53:55.809Z,15.90
2023-05-04T01:56:22.260Z,15.23
2023-05-04T01:58:48.587Z,14.47
2023-05-04T02:01:15.097Z,14.17
2023-05-04T02:03:41.742Z,15.37
2023-05-04T02:06:08.484Z,13.30
2023-05-04T02:08:34.838Z,11.97
2023-05-04T02:11:01.188Z,17.93
2023-05-04T02:13:27.529Z,13.47
2023-05-04T02:15:53.883Z,26.87
2023-05-04T02:18:20.248Z,18.97
2023-05-04T02:20:46.575Z,14.00
2023-05-04T02:23:12.894Z,13.77
2023-05-04T02:25:41.361Z,15.90
2023-05-04T02:28:07.704Z,14.23
2023-05-04T02:30:34.047Z,14.33
2023-05-04T02:33:00.434Z,16.13
2023-05-04T02:35:26.806Z,17.83
2023-05-04T02:37:53.138Z,12.87
2023-05-04T02:40:19.497Z,13.43
2023-05-04T02:42:45.855Z,20.13
2023-05-04T02:45:12.548Z,18.23
2023-05-04T02:47:38.895Z,13.40
2023-05-04T02:50:06.620Z,12.80
2023-05-04T02:52:33.202Z,17.17
2023-05-04T02:55:01.134Z,14.67
2023-05-04T02:57:27.488Z,17.17
2023-05-04T02:59:53.818Z,15.47
2023-05-04T03:02:20.642Z,15.70
2023-05-04T03:04:47.041Z,16.30
2023-05-04T03:07:13.436Z,15.83
2023-05-04T03:09:39.762Z,17.40
2023-05-04T03:12:06.233Z,19.57
2023-05-04T03:14:32.620Z,16.40
2023-05-04T03:16:59.092Z,16.40
2023-05-04T03:19:26.018Z,20.13
2023-05-04T03:21:52.387Z,19.57
2023-05-04T03:24:19.054Z,15.53
2023-05-04T03:26:46.989Z,16.50
2023-05-04T03:29:13.327Z,13.30
2023-05-04T03:31:39.703Z,20.43
2023-05-04T03:34:06.186Z,16.10
2023-05-04T03:36:32.552Z,13.93
2023-05-04T03:38:59.104Z,14.43
2023-05-04T03:41:25.502Z,15.27
2023-05-04T03:43:51.838Z,17.90
2023-05-04T03:46:18.252Z,15.27
2023-05-04T03:48:44.613Z,15.83
2023-05-04T03:51:11.023Z,16.50
2023-05-04T03:53:37.384Z,16.97
2023-05-04T03:56:03.893Z,16.50
2023-05-04T03:58:30.393Z,14.97
2023-05-04T04:00:56.740Z,19.77
2023-05-04T04:03:23.213Z,16.83
2023-05-04T04:05:50.001Z,18.67
2023-05-04T04:08:16.333Z,20.73
2023-05-04T04:10:42.696Z,20.07
2023-05-04T04:13:09.127Z,19.73
2023-05-04T04:15:35.584Z,18.63
2023-05-04T04:18:02.048Z,17.60
2023-05-04T04:20:28.438Z,18.80
2023-05-04T04:22:54.753Z,18.23
2023-05-04T04:25:21.280Z,20.87
2023-05-04T04:27:47.599Z,19.73
2023-05-04T04:30:14.211Z,19.23
2023-05-04T04:32:40.607Z,16.00
2023-05-04T04:35:07.982Z,22.67
2023-05-04T04:37:34.500Z,18.37
2023-05-04T04:40:01.436Z,18.53
2023-05-04T04:42:27.877Z,20.47
2023-05-04T04:44:54.367Z,22.90
2023-05-04T04:47:20.697Z,18.07
2023-05-04T04:49:47.653Z,20.33
2023-05-04T04:52:14.133Z,21.83
2023-05-04T04:54:40.512Z,21.00
2023-05-04T04:57:06.928Z,14.73
2023-05-04T04:59:33.273Z,16.00
2023-05-04T05:02:00.552Z,21.27
2023-05-04T05:04:27.109Z,20.03
2023-05-04T05:06:54.096Z,18.47
2023-05-04T05:09:20.478Z,22.33
2023-05-04T05:11:46.804Z,15.90
2023-05-04T05:14:13.159Z,21.77
2023-05-04T05:16:39.565Z,16.50
2023-05-04T05:19:05.922Z,17.50
2023-05-04T05:21:32.255Z,25.03
2023-05-04T05:23:58.587Z,18.80
2023-05-04T05:26:24.981Z,16.30
2023-05-04T05:28:51.420Z,21.33
2023-05-04T05:31:17.830Z,19.63
2023-05-04T05:33:44.212Z,20.30
2023-05-04T05:36:10.559Z,28.90
2023-05-04T05:38:37.089Z,26.00
2023-05-04T05:41:03.984Z,21.77
2023-05-04T05:43:30.366Z,23.50
2023-05-04T05:45:56.798Z,23.90
2023-05-04T05:48:23.208Z,24.27
2023-05-04T05:50:50.140Z,19.77
2023-05-04T05:53:16.467Z,27.03
2023-05-04T05:55:42.802Z,23.43
2023-05-04T05:58:09.384Z,28.30
2023-05-04T06:00:35.727Z,27.13
2023-05-04T06:03:02.400Z,22.23
2023-05-04T06:05:28.889Z,26.10
2023-05-04T06:07:55.270Z,23.23
2023-05-04T06:10:21.781Z,24.63
2023-05-04T06:12:48.140Z,21.90
2023-05-04T06:15:14.789Z,22.47
2023-05-04T06:17:41.621Z,21.73
2023-05-04T06:20:09.045Z,24.50
2023-05-04T06:22:35.535Z,21.73
2023-05-04T06:25:05.322Z,21.90
2023-05-04T06:27:33.567Z,21.83
2023-05-04T06:29:59.932Z,22.33
2023-05-04T06:32:26.307Z,25.60
2023-05-04T06:34:54.924Z,24.33
2023-05-04T06:37:21.837Z,24.10
2023-05-04T06:39:48.279Z,26.57
2023-05-04T06:42:14.633Z,23.70
2023-05-04T06:44:41.381Z,26.27
2023-05-04T06:47:07.979Z,25.90
2023-05-04T06:49:34.658Z,24.53
2023-05-04T06:52:01.191Z,23.70
2023-05-04T06:54:28.158Z,22.57
2023-05-04T06:56:54.534Z,32.00
2023-05-04T06:59:21.421Z,24.10
2023-05-04T07:01:47.900Z,26.23
2023-05-04T07:04:16.316Z,21.73
2023-05-04T07:06:43.500Z,23.50
2023-05-04T07:09:09.863Z,32.73
2023-05-04T07:11:36.416Z,26.63
2023-05-04T07:14:02.732Z,25.57
2023-05-04T07:16:29.170Z,26.57
2023-05-04T07:18:55.497Z,25.83
2023-05-04T07:21:27.500Z,24.80
2023-05-04T07:23:55.351Z,20.50
2023-05-04T07:26:22.252Z,23.80
2023-05-04T07:28:48.656Z,23.17
2023-05-04T07:31:15.785Z,27.13
2023-05-04T07:33:42.708Z,27.13
2023-05-04T07:36:09.374Z,20.17
2023-05-04T07:38:36.924Z,22.63
2023-05-04T07:41:03.584Z,21.40
2023-05-04T07:43:29.914Z,21.53
2023-05-04T07:45:56.714Z,23.13
2023-05-04T07:48:25.201Z,22.03
2023-05-04T07:50:52.688Z,22.93
2023-05-04T07:53:20.620Z,20.93
2023-05-04T07:55:47.856Z,18.50
2023-05-04T07:58:15.381Z,20.10
2023-05-04T08:00:41.898Z,18.13
2023-05-04T08:03:08.387Z,18.17
2023-05-04T08:05:34.742Z,23.10
2023-05-04T08:08:01.240Z,21.57
2023-05-04T08:10:29.039Z,17.13
2023-05-04T08:12:55.451Z,19.73
2023-05-04T08:15:22.089Z,22.07
2023-05-04T08:17:48.707Z,20.60
2023-05-04T08:20:15.224Z,18.00
2023-05-04T08:22:41.812Z,16.33
2023-05-04T08:25:09.420Z,18.50
2023-05-04T08:27:36.037Z,19.10
2023-05-04T08:30:02.433Z,14.13
2023-05-04T08:32:29.978Z,28.03
2023-05-04T08:34:57.355Z,16.93
2023-05-04T08:37:23.857Z,16.40
2023-05-04T08:39:50.768Z,17.97
2023-05-04T08:42:27.859Z,15.10
2023-05-04T08:44:56.476Z,15.70
2023-05-04T08:47:23.486Z,16.33
2023-05-04T08:49:49.894Z,17.27
2023-05-04T08:52:17.458Z,16.73
2023-05-04T08:54:44.760Z,17.43
2023-05-04T08:57:12.351Z,15.17
2023-05-04T08:59:38.950Z,14.77
2023-05-04T09:02:05.930Z,16.57
2023-05-04T09:04:32.677Z,17.20
2023-05-04T09:06:59.039Z,16.30
2023-05-04T09:09:28.176Z,17.50
2023-05-04T09:11:54.498Z,15.63
2023-05-04T09:14:22.235Z,13.97
2023-05-04T09:16:48.630Z,17.67
2023-05-04T09:19:19.279Z,14.80
2023-05-04T09:21:46.982Z,14.70
2023-05-04T09:24:13.366Z,13.73
2023-05-04T09:26:39.722Z,14.80
2023-05-04T09:29:14.176Z,14.20
2023-05-04T09:31:48.824Z,16.03
2023-05-04T09:34:15.525Z,15.57
2023-05-04T09:36:42.153Z,13.60
2023-05-04T09:39:12.583Z,13.90
2023-05-04T09:41:38.967Z,17.07
2023-05-04T09:44:05.827Z,13.80
2023-05-04T09:46:32.447Z,15.67
2023-05-04T09:48:58.911Z,17.57
2023-05-04T09:51:27.485Z,13.50
2023-05-04T09:53:54.267Z,15.00
2023-05-04T09:56:30.990Z,12.50
2023-05-04T09:58:58.721Z,16.80
2023-05-04T10:01:29.364Z,12.73
2023-05-04T10:03:56.059Z,12.53
2023-05-04T10:06:24.121Z,13.87
2023-05-04T10:08:50.997Z,14.23
2023-05-04T10:11:19.173Z,12.57
2023-05-04T10:13:46.957Z,12.93
2023-05-04T10:16:56.088Z,12.07
2023-05-04T10:19:52.235Z,14.57
2023-05-04T10:22:37.948Z,22.37
2023-05-04T10:25:27.910Z,12.77
2023-05-04T10:28:11.191Z,14.00
2023-05-04T10:30:39.872Z,16.63
2023-05-04T10:33:06.523Z,13.63
2023-05-04T10:35:32.907Z,12.80
2023-05-04T10:37:59.470Z,13.13
2023-05-04T10:40:39.080Z,12.80
2023-05-04T10:43:07.735Z,14.70
2023-05-04T10:45:38.662Z,14.97
2023-05-04T10:48:05.945Z,15.23
2023-05-04T10:50:50.892Z,13.40
2023-05-04T10:53:18.079Z,11.13
2023-05-04T10:55:46.816Z,14.27
2023-05-04T10:58:16.561Z,14.07
2023-05-04T11:00:47.260Z,12.43
2023-05-04T11:03:15.096Z,13.00
2023-05-04T11:05:43.472Z,13.00
2023-05-04T11:08:17.577Z,11.80
2023-05-04T11:10:44.384Z,11.80
2023-05-04T11:13:12.168Z,10.93
2023-05-04T11:15:48.698Z,12.73
2023-05-04T11:18:15.431Z,12.60
2023-05-04T11:20:42.774Z,12.47
2023-05-04T11:23:10.289Z,13.40
2023-05-04T11:25:37.533Z,11.10
2023-05-04T11:28:04.288Z,9.83
2023-05-04T11:30:34.668Z,13.27
2023-05-04T11:33:02.654Z,11.20
2023-05-04T11:35:29.089Z,11.40
2023-05-04T11:37:56.296Z,10.77
2023-05-04T11:40:24.250Z,14.50
2023-05-04T11:42:53.682Z,15.73
2023-05-04T11:45:32.728Z,13.50
2023-05-04T11:48:00.375Z,16.17
2023-05-04T11:50:28.554Z,9.00
2023-05-04T11:53:09.957Z,8.43
2023-05-04T11:55:37.422Z,8.37
2023-05-04T11:58:09.498Z,12.13
2023-05-04T12:00:44.000Z,9.50
2023-05-04T12:03:14.404Z,7.33
2023-05-04T12:05:48.434Z,10.47
2023-05-04T12:08:32.222Z,9.47
2023-05-04T12:11:28.659Z,10.10
2023-05-04T12:14:06.809Z,7.80
2023-05-04T12:16:33.827Z,6.30
2023-05-04T12:19:04.897Z,15.23
2023-05-04T12:21:32.345Z,7.27
2023-05-04T12:23:58.971Z,11.57
2023-05-04T12:26:26.221Z,9.10
2023-05-04T12:28:52.921Z,8.00
2023-05-04T12:31:19.335Z,7.37
2023-05-04T12:33:45.730Z,6.50
2023-05-04T12:36:12.110Z,9.10
2023-05-04T12:38:39.265Z,6.23
2023-05-04T12:41:10.580Z,11.03
2023-05-04T12:43:37.395Z,9.20
2023-05-04T12:46:04.281Z,8.57
2023-05-04T12:48:32.600Z,7.60
2023-05-04T12:51:00.129Z,7.30
2023-05-04T12:53:29.806Z,6.00
2023-05-04T12:55:56.428Z,5.70
2023-05-04T12:58:22.763Z,7.03
2023-05-04T13:00:49.126Z,7.60
2023-05-04T13:03:17.833Z,5.20
2023-05-04T13:05:46.299Z,10.53
2023-05-04T13:08:12.913Z,5.43
2023-05-04T13:10:39.289Z,6.43
2023-05-04T13:13:05.739Z,4.90
2023-05-04T13:15:33.212Z,7.13
2023-05-04T13:18:00.209Z,6.03
2023-05-04T13:20:26.678Z,6.60
2023-05-04T13:22:53.028Z,6.73
2023-05-04T13:25:19.371Z,6.80
2023-05-04T13:27:45.794Z,7.77
2023-05-04T13:30:12.606Z,6.10
2023-05-04T13:32:39.596Z,6.37
2023-05-04T13:35:07.010Z,6.50
2023-05-04T13:37:33.830Z,8.50
2023-05-04T13:40:01.438Z,5.87
2023-05-04T13:42:27.852Z,7.37
2023-05-04T13:44:54.281Z,7.30
2023-05-04T13:47:21.042Z,5.20
2023-05-04T13:49:48.905Z,5.27
2023-05-04T13:52:15.414Z,5.20
2023-05-04T13:54:42.180Z,11.33
2023-05-04T13:57:08.515Z,6.70
2023-05-04T13:59:34.985Z,4.80
2023-05-04T14:02:01.739Z,6.63
2023-05-04T14:04:28.191Z,5.27
2023-05-04T14:06:54.660Z,8.40
2023-05-04T14:09:21.084Z,5.80
2023-05-04T14:11:47.551Z,5.93
2023-05-04T14:14:13.909Z,5.40
2023-05-04T14:16:40.602Z,5.20
2023-05-04T14:19:06.927Z,6.20
2023-05-04T14:21:33.319Z,5.57
2023-05-04T14:23:59.666Z,5.93
2023-05-04T14:26:26.221Z,5.57
2023-05-04T14:28:52.556Z,7.37
2023-05-04T14:31:18.939Z,4.57
2023-05-04T14:33:45.320Z,7.67
2023-05-04T14:36:11.848Z,4.30
2023-05-04T14:38:38.191Z,12.03
2023-05-04T14:41:05.608Z,4.83
2023-05-04T14:43:32.603Z,5.07
2023-05-04T14:45:59.594Z,4.70
2023-05-04T14:48:27.428Z,5.60
2023-05-04T14:50:54.712Z,8.40
2023-05-04T14:53:24.009Z,4.17
2023-05-04T14:55:50.667Z,7.33
2023-05-04T14:58:17.945Z,5.30
2023-05-04T15:00:47.473Z,5.53
2023-05-04T15:03:13.908Z,6.53
2023-05-04T15:05:40.390Z,5.90
2023-05-04T15:08:06.864Z,4.33
2023-05-04T15:10:36.406Z,6.80
2023-05-04T15:13:03.514Z,7.17
2023-05-04T15:15:29.932Z,6.43
2023-05-04T15:17:56.272Z,5.47
2023-05-04T15:20:22.690Z,8.73
2023-05-04T15:22:52.189Z,9.90
2023-05-04T15:25:23.206Z,7.83
2023-05-04T15:27:49.616Z,5.30
2023-05-04T15:30:16.453Z,6.40
2023-05-04T15:32:42.793Z,4.93
2023-05-04T15:35:09.194Z,9.50
2023-05-04T15:37:35.836Z,7.10
2023-05-04T15:40:04.319Z,6.20
2023-05-04T15:42:31.166Z,7.83
2023-05-04T15:44:57.585Z,7.03
2023-05-04T15:47:23.935Z,6.23
2023-05-04T15:49:50.282Z,5.00
2023-05-04T15:52:16.713Z,6.10
2023-05-04T15:54:43.038Z,4.30
2023-05-04T15:57:09.448Z,6.23
2023-05-04T15:59:35.848Z,4.43
2023-05-04T16:02:05.594Z,4.40
2023-05-04T16:04:31.958Z,4.70
2023-05-04T16:06:58.308Z,4.77
2023-05-04T16:09:26.644Z,5.93
2023-05-04T16:11:52.979Z,5.43
2023-05-04T16:14:19.321Z,19.53
2023-05-04T16:16:45.687Z,6.63
2023-05-04T16:19:12.027Z,8.53
2023-05-04T16:21:39.406Z,4.13
2023-05-04T16:24:07.516Z,5.83
2023-05-04T16:26:33.846Z,5.47
2023-05-04T16:29:00.472Z,9.43
2023-05-04T16:31:26.928Z,8.00
2023-05-04T16:33:53.302Z,13.03
2023-05-04T16:36:19.631Z,10.80
2023-05-04T16:38:47.831Z,5.33
2023-05-04T16:41:14.166Z,5.53
2023-05-04T16:43:40.684Z,6.87
2023-05-04T16:46:07.086Z,5.50
2023-05-04T16:48:33.530Z,5.03
2023-05-04T16:50:59.860Z,6.93
2023-05-04T16:53:26.217Z,6.90
2023-05-04T16:55:52.563Z,7.07
2023-05-04T16:58:18.909Z,6.20
2023-05-04T17:00:45.267Z,8.20
2023-05-04T17:03:11.767Z,5.60
2023-05-04T17:05:38.181Z,7.30
2023-05-04T17:08:04.650Z,10.97
2023-05-04T17:10:30.996Z,7.10
2023-05-04T17:12:57.372Z,6.60
2023-05-04T17:15:23.753Z,6.63
2023-05-04T17:17:50.112Z,5.10
2023-05-04T17:20:16.530Z,6.27
2023-05-04T17:22:43.361Z,8.27
2023-05-04T17:25:10.956Z,4.50
2023-05-04T17:27:37.281Z,10.47
2023-05-04T17:30:04.567Z,6.07
2023-05-04T17:32:31.116Z,6.13
2023-05-04T17:34:59.634Z,6.00
2023-05-04T17:37:27.703Z,9.90
2023-05-04T17:39:54.040Z,5.70
2023-05-04T17:42:20.430Z,7.43
2023-05-04T17:44:46.757Z,12.40
2023-05-04T17:47:13.089Z,6.10
2023-05-04T17:49:39.418Z,7.57
2023-05-04T17:52:05.729Z,5.47
2023-05-04T17:54:32.054Z,6.20
2023-05-04T17:56:58.380Z,7.40
2023-05-04T17:59:24.801Z,9.43
2023-05-04T18:01:51.322Z,57.97
2023-05-04T18:04:17.672Z,50.10
2023-05-04T18:06:44.007Z,19.53
2023-05-04T18:09:10.668Z,104.30
2023-05-04T18:11:37.014Z,80.87
2023-05-04T18:14:03.343Z,18.33
2023-05-04T18:16:30.700Z,16.00
2023-05-04T18:18:58.387Z,21.00
2023-05-04T18:21:24.893Z,16.00
2023-05-04T18:23:51.240Z,16.60
2023-05-04T18:26:22.336Z,12.30
2023-05-04T18:28:49.322Z,13.40
2023-05-04T18:31:15.889Z,12.23
2023-05-04T18:33:42.411Z,12.17
2023-05-04T18:36:08.979Z,15.00
2023-05-04T18:38:36.962Z,18.70
2023-05-04T18:41:04.481Z,20.00
2023-05-04T18:43:31.269Z,14.53
2023-05-04T18:45:57.695Z,9.43
2023-05-04T18:48:24.163Z,7.00
2023-05-04T18:50:53.772Z,11.03
2023-05-04T18:53:20.148Z,8.73
2023-05-04T18:55:46.457Z,12.90
2023-05-04T18:58:12.852Z,7.60
2023-05-04T19:00:39.171Z,10.93
2023-05-04T19:03:05.529Z,16.27
2023-05-04T19:05:32.066Z,14.13
2023-05-04T19:07:58.498Z,22.03
2023-05-04T19:10:24.842Z,18.80
2023-05-04T19:12:51.214Z,13.63
2023-05-04T19:15:18.514Z,20.40
2023-05-04T19:17:44.936Z,11.80
2023-05-04T19:20:11.557Z,16.10
2023-05-04T19:22:37.910Z,17.47
2023-05-04T19:25:04.610Z,26.17
2023-05-04T19:27:31.073Z,13.07
2023-05-04T19:29:57.434Z,10.80
2023-05-04T19:32:24.990Z,9.13
2023-05-04T19:34:52.386Z,10.80
2023-05-04T19:37:18.752Z,9.07
2023-05-04T19:39:45.398Z,10.23
2023-05-04T19:42:11.775Z,12.40
2023-05-04T19:44:38.115Z,17.37
2023-05-04T19:47:04.512Z,17.60
2023-05-04T19:49:30.881Z,24.00
2023-05-04T19:51:57.244Z,12.33
2023-05-04T19:54:23.854Z,6.77
2023-05-04T19:56:50.378Z,17.20
2023-05-04T19:59:16.841Z,9.40
2023-05-04T20:01:43.202Z,9.30
2023-05-04T20:04:09.596Z,7.73
2023-05-04T20:06:36.406Z,11.90
2023-05-04T20:09:03.777Z,10.60
2023-05-04T20:11:30.560Z,10.50
2023-05-04T20:13:56.918Z,8.07
2023-05-04T20:16:23.394Z,10.93
2023-05-04T20:18:49.760Z,13.17
2023-05-04T20:21:16.526Z,14.90
2023-05-04T20:23:43.465Z,12.10
2023-05-04T20:26:09.915Z,7.77
2023-05-04T20:28:36.284Z,11.97
2023-05-04T20:31:02.772Z,9.93
2023-05-04T20:33:29.169Z,9.07
2023-05-04T20:35:55.520Z,7.90
2023-05-04T20:38:21.902Z,12.53
2023-05-04T20:40:48.995Z,10.33
2023-05-04T20:43:16.301Z,12.00
2023-05-04T20:45:42.689Z,9.80
2023-05-04T20:48:09.109Z,9.67
2023-05-04T20:50:35.861Z,20.53
2023-05-04T20:53:02.832Z,10.10
2023-05-04T20:55:29.362Z,9.17
2023-05-04T20:57:55.775Z,8.50
2023-05-04T21:00:22.160Z,13.87
2023-05-04T21:02:48.768Z,8.37
2023-05-04T21:05:15.315Z,16.93
2023-05-04T21:07:41.658Z,16.87
2023-05-04T21:10:09.185Z,9.97
2023-05-04T21:12:35.687Z,15.20
2023-05-04T21:15:02.070Z,13.70
2023-05-04T21:17:28.510Z,10.57
2023-05-04T21:19:54.937Z,13.20
2023-05-04T21:22:21.507Z,12.87
2023-05-04T21:24:47.865Z,13.03
2023-05-04T21:27:14.260Z,18.40
2023-05-04T21:29:40.804Z,10.03
2023-05-04T21:32:07.150Z,14.70
2023-05-04T21:34:33.597Z,11.70
2023-05-04T21:37:00.026Z,9.00
2023-05-04T21:39:26.663Z,15.33
2023-05-04T21:41:53.076Z,17.87
2023-05-04T21:44:19.418Z,11.57
2023-05-04T21:46:46.069Z,10.87
2023-05-04T21:49:12.558Z,13.60
2023-05-04T21:51:38.941Z,8.67
2023-05-04T21:54:05.405Z,17.50
2023-05-04T21:56:31.725Z,11.17
2023-05-04T21:58:58.065Z,13.37
2023-05-04T22:01:24.528Z,8.77
2023-05-04T22:03:52.675Z,11.87
2023-05-04T22:06:21.429Z,10.10
2023-05-04T22:08:47.957Z,16.47
2023-05-04T22:11:14.317Z,14.53
2023-05-04T22:13:40.697Z,14.43
2023-05-04T22:16:08.320Z,9.50
2023-05-04T22:18:34.687Z,14.57
2023-05-04T22:21:01.129Z,14.30
2023-05-04T22:23:27.457Z,12.43
2023-05-04T22:25:53.820Z,12.13
2023-05-04T22:28:20.719Z,16.23
2023-05-04T22:30:47.092Z,17.77
2023-05-04T22:33:13.470Z,12.77
2023-05-04T22:35:39.833Z,9.13
2023-05-04T22:38:06.291Z,12.83
2023-05-04T22:40:32.664Z,15.70
2023-05-04T22:42:59.046Z,14.60
2023-05-04T22:45:25.393Z,19.80
2023-05-04T22:47:51.936Z,11.93
2023-05-04T22:50:18.373Z,12.83
2023-05-04T22:52:44.757Z,15.60
2023-05-04T22:55:11.563Z,10.17
2023-05-04T22:57:37.878Z,17.03
2023-05-04T23:00:07.451Z,11.80
2023-05-04T23:02:34.660Z,13.00
2023-05-04T23:05:01.150Z,18.83
2023-05-04T23:07:27.642Z,19.83
2023-05-04T23:09:54.188Z,19.07
2023-05-04T23:12:20.559Z,16.43
2023-05-04T23:14:50.339Z,12.30
2023-05-04T23:17:16.851Z,14.57
2023-05-04T23:19:43.255Z,15.23
2023-05-04T23:22:09.685Z,13.70
2023-05-04T23:24:36.046Z,11.30
2023-05-04T23:27:02.449Z,13.70
2023-05-04T23:29:28.796Z,12.67
2023-05-04T23:31:55.173Z,12.83
2023-05-04T23:34:21.829Z,15.70
2023-05-04T23:36:49.071Z,8.90
2023-05-04T23:39:15.895Z,12.27
2023-05-04T23:41:42.306Z,10.13
2023-05-04T23:44:08.633Z,12.00
2023-05-04T23:46:35.145Z,9.97
2023-05-04T23:49:01.494Z,11.13
2023-05-04T23:51:30.399Z,11.37
2023-05-04T23:53:56.757Z,14.23
2023-05-04T23:56:23.093Z,10.37
2023-05-04T23:58:49.449Z,10.13
